Charlevoix, MI

11:56 AM EST on January 28, 2015 (GMT -0500)
1.5 W Ironton | Change Station
CLOSE
Current Station
Personal Weather Station
Location: Charlevoix, MI
Elevation: 750 ft
Nearby Weather Stations

Elev 750 ft 45.26 °N, 85.22 °W | Updated 15 seconds ago

Clear
Clear
22.5 °F
Feels Like 22 °F
N
2.0
Wind Variable Wind from SSE
Gusts 4.0 mph

Today
High -- | Low -- °F
--% Chance of Precip.
Yesterday
High -- | Low -- °F
Precip. -- in
8:06 AM 5:42 PM
Waxing Gibbous, 66% visible
Pressure 30.28 in
Visibility 10.0 miles
Clouds Clear
Windchill 22 °F
Dew Point 11 °F
Humidity 60%
Rainfall 0.00 in
Snow Depth Not available.
UV 2 out of 12
Pollen .10 out of 12
Air Quality Not available.
Flu Activity Not available.
METAR KCVX 281635Z AUTO 15007KT 10SM CLR M06/M13 A3028 RMK AO2 T10561135

More Conditions Fewer Conditions

Pressure 30.28 in
Visibility 10.0 miles
Clouds Clear
Windchill 22 °F
Dew Point 11 °F
Humidity 60%
Rainfall 0.00 in
Snow Depth Not available.
UV 2 out of 12
Pollen .10 out of 12
Air Quality Not available.
Flu Activity Not available.
METAR KCVX 281635Z AUTO 15007KT 10SM CLR M06/M13 A3028 RMK AO2 T10561135

More Conditions Fewer Conditions

Nowcast | as of 11:00 am EST on January 28, 2015

At 12 PM...mostly cloudy. Temperature 24. South winds 8 mph. At 2 PM...mostly cloudy. Temperature 29. South winds 8 mph. At 4 PM...mostly cloudy. Temperature 29. South winds 7 mph. At 6 PM...mostly cloudy. Temperature 28. Southeast winds 7 mph.

×

10-Day Weather Forecast

Almanac

Astronomy

Jan. 28, 2015 Rise Set
Actual Time
Civil Twilight
Nautical Twilight
Astronomical Twilight
Moon
Length of Visible Light
Length of Day
Tomorrow will be .
, % of the Moon is Illuminated

Today's Extremes

State Highs State Lows

Community

WunderPhotos

Upload Photos

1,791,197 photos uploaded!

WunderBlogs® & News

Nearby

Air Quality

  Air Quality AQ Index Pollutant
Not available.

Snow Depth

Station Depth Elevation

Earthquake Activity

City Distance Mag. Time & Date
Minimum magnitude displayed is 2.5.

Coastal Water Temperatures

Place Temperature

Nearby Weather Stations